Time;durP1;ratioP1;P1;durP2;ratioP2;P2;SDS_P1;SDS_P2;PMS_P1;PMS_P2;Temp;Humidity;BMP_temperature;BMP_pressure;BME280_temperature;BME280_humidity;BME280_pressure;Samples;Min_cycle;Max_cycle;Signal;HPM_P1;HPM_P2
2023/09/09 00:01:32;;;;;;;19.40;11.70;;;20.70;77.30;;;;;;4988884;28;20250;-73
2023/09/09 00:03:58;;;;;;;20.60;12.07;;;20.60;77.10;;;;;;4980499;28;21363;-75
2023/09/09 00:06:24;;;;;;;22.40;11.53;;;20.60;77.60;;;;;;4987100;28;20545;-73
2023/09/09 00:08:50;;;;;;;15.03;10.73;;;20.60;77.70;;;;;;4987910;28;20955;-72
2023/09/09 00:11:15;;;;;;;17.33;11.23;;;20.50;77.70;;;;;;4984629;28;20185;-74
2023/09/09 00:13:41;;;;;;;18.23;11.80;;;20.50;77.80;;;;;;4988669;28;20190;-73
2023/09/09 00:16:08;;;;;;;17.10;11.27;;;20.50;77.70;;;;;;4986152;28;20323;-73
2023/09/09 00:18:34;;;;;;;18.23;11.00;;;20.50;77.60;;;;;;4972508;28;20217;-73
2023/09/09 00:21:00;;;;;;;18.37;10.90;;;20.50;77.70;;;;;;4990433;28;20531;-73
2023/09/09 00:23:26;;;;;;;17.07;11.57;;;20.50;77.80;;;;;;4991670;28;20177;-74
2023/09/09 00:25:52;;;;;;;18.27;12.20;;;20.50;77.80;;;;;;4998245;28;20923;-74
2023/09/09 00:28:20;;;;;;;20.33;12.87;;;20.50;77.80;;;;;;4989634;28;20464;-74
2023/09/09 00:30:46;;;;;;;20.70;12.10;;;20.40;77.80;;;;;;4988268;28;20663;-74
2023/09/09 00:33:11;;;;;;;15.90;11.17;;;20.40;77.80;;;;;;4992627;28;20517;-73
2023/09/09 00:35:39;;;;;;;16.10;11.57;;;20.40;78.00;;;;;;4985409;28;20208;-73
2023/09/09 00:38:11;;;;;;;18.70;11.87;;;20.30;78.00;;;;;;4990573;28;20214;-74
2023/09/09 00:40:37;;;;;;;17.57;11.10;;;20.30;78.10;;;;;;4988026;28;20427;-75
2023/09/09 00:43:03;;;;;;;23.53;13.10;;;20.30;78.00;;;;;;4990297;28;20427;-74
2023/09/09 00:45:29;;;;;;;15.83;11.30;;;20.30;78.10;;;;;;4988648;28;20503;-74
2023/09/09 00:47:55;;;;;;;15.77;11.03;;;20.20;78.10;;;;;;4985379;28;20211;-74
2023/09/09 00:50:21;;;;;;;16.67;11.30;;;20.20;78.10;;;;;;4992151;28;20557;-74
2023/09/09 00:52:47;;;;;;;16.20;11.40;;;20.20;78.10;;;;;;4990214;28;20448;-74
2023/09/09 00:55:13;;;;;;;19.10;11.80;;;20.20;78.10;;;;;;4989287;28;20541;-74
2023/09/09 00:57:39;;;;;;;16.53;10.53;;;20.20;78.30;;;;;;4992412;28;20759;-73
2023/09/09 01:00:09;;;;;;;19.27;11.77;;;20.20;78.40;;;;;;4996246;28;20475;-73
2023/09/09 01:02:38;;;;;;;18.43;12.30;;;20.10;78.60;;;;;;4993444;28;20258;-73
2023/09/09 01:05:07;;;;;;;16.93;11.27;;;20.10;78.60;;;;;;4986411;28;20517;-74
2023/09/09 01:07:46;;;;;;;17.10;11.60;;;20.10;78.90;;;;;;4990229;28;20478;-73
2023/09/09 01:10:13;;;;;;;15.70;11.40;;;20.10;78.70;;;;;;4990576;28;20466;-74
2023/09/09 01:12:39;;;;;;;18.00;11.90;;;20.10;78.70;;;;;;4989611;28;20451;-74
2023/09/09 01:15:06;;;;;;;16.87;10.60;;;20.10;78.70;;;;;;4987961;28;20474;-74
2023/09/09 01:17:34;;;;;;;21.50;11.73;;;20.00;78.70;;;;;;4991294;28;20446;-74
2023/09/09 01:20:06;;;;;;;19.07;11.67;;;20.00;79.00;;;;;;4992160;28;20502;-74
2023/09/09 01:22:35;;;;;;;17.00;12.17;;;20.00;79.00;;;;;;4989333;28;21385;-74
2023/09/09 01:25:03;;;;;;;20.73;12.07;;;20.00;79.00;;;;;;4989254;28;20884;-74
2023/09/09 01:27:29;;;;;;;18.47;11.90;;;19.90;79.20;;;;;;4993268;28;20428;-73
2023/09/09 01:29:54;;;;;;;15.37;12.10;;;19.90;79.30;;;;;;4991972;28;20511;-72
2023/09/09 01:32:20;;;;;;;21.57;12.53;;;19.80;79.30;;;;;;4992265;28;20219;-74
2023/09/09 01:34:45;;;;;;;19.57;12.33;;;19.80;79.50;;;;;;4990860;28;20199;-75
2023/09/09 01:37:11;;;;;;;18.57;12.00;;;19.70;79.70;;;;;;4988320;28;20216;-73
2023/09/09 01:39:37;;;;;;;20.17;12.77;;;19.80;79.60;;;;;;4988562;28;20301;-74
2023/09/09 01:42:03;;;;;;;17.43;11.87;;;19.80;79.30;;;;;;4990975;28;20211;-73
2023/09/09 01:44:28;;;;;;;18.37;12.17;;;19.70;79.60;;;;;;4993351;28;20692;-73
2023/09/09 01:46:54;;;;;;;16.97;11.30;;;19.70;79.60;;;;;;4987894;28;20188;-73
2023/09/09 01:49:19;;;;;;;19.60;11.43;;;19.70;79.70;;;;;;4992196;28;20286;-74
2023/09/09 01:51:45;;;;;;;15.43;10.60;;;19.60;79.90;;;;;;4994382;28;20183;-73
2023/09/09 01:54:10;;;;;;;18.83;12.33;;;19.70;80.00;;;;;;4992019;28;20742;-72
2023/09/09 01:56:36;;;;;;;18.43;11.57;;;19.70;80.00;;;;;;4990259;28;20257;-74
2023/09/09 01:59:02;;;;;;;17.87;11.60;;;19.60;79.90;;;;;;4992133;28;20246;-72
2023/09/09 02:01:27;;;;;;;17.17;11.57;;;19.60;80.20;;;;;;4990894;28;20250;-74
2023/09/09 02:03:53;;;;;;;16.97;10.80;;;19.60;80.20;;;;;;4992656;28;20203;-72
2023/09/09 02:06:19;;;;;;;16.00;11.70;;;19.60;80.20;;;;;;4989643;28;20208;-73
2023/09/09 02:08:45;;;;;;;18.03;10.93;;;19.60;80.20;;;;;;4989882;28;20612;-72
2023/09/09 02:11:10;;;;;;;17.93;12.27;;;19.60;80.20;;;;;;4988117;28;21007;-73
2023/09/09 02:13:36;;;;;;;17.30;11.33;;;19.60;80.20;;;;;;4991997;28;20180;-73
2023/09/09 02:16:07;;;;;;;16.47;11.90;;;19.60;80.20;;;;;;4992830;28;20215;-72
2023/09/09 02:18:37;;;;;;;15.73;11.50;;;19.60;80.20;;;;;;4988283;28;20277;-71
2023/09/09 02:21:03;;;;;;;16.73;10.90;;;19.60;80.20;;;;;;4986991;28;20817;-74
2023/09/09 02:23:29;;;;;;;23.93;11.70;;;19.50;80.30;;;;;;4987268;28;20453;-76
2023/09/09 02:25:55;;;;;;;17.27;11.30;;;19.50;80.50;;;;;;4984295;28;20488;-75
2023/09/09 02:28:21;;;;;;;16.80;11.07;;;19.40;80.50;;;;;;4990830;28;20263;-73
2023/09/09 02:30:47;;;;;;;16.53;10.93;;;19.40;80.50;;;;;;4990879;28;20442;-73
2023/09/09 02:33:13;;;;;;;18.10;11.67;;;19.40;80.50;;;;;;4990800;28;20186;-73
2023/09/09 02:35:45;;;;;;;16.60;11.70;;;19.40;80.50;;;;;;4985331;28;20211;-73
2023/09/09 02:38:10;;;;;;;19.13;12.47;;;19.40;80.60;;;;;;4987776;28;20489;-73
2023/09/09 02:40:36;;;;;;;17.10;11.80;;;19.30;80.80;;;;;;4987629;28;20470;-73
2023/09/09 02:43:02;;;;;;;19.60;12.00;;;19.30;80.80;;;;;;4989190;28;20190;-72
2023/09/09 02:45:28;;;;;;;18.47;11.87;;;19.40;80.20;;;;;;4988539;28;20677;-73
2023/09/09 02:47:53;;;;;;;19.03;12.50;;;19.40;79.70;;;;;;4991215;28;20214;-72
2023/09/09 02:50:19;;;;;;;16.10;11.13;;;19.30;79.70;;;;;;4987284;28;20183;-73
2023/09/09 02:52:48;;;;;;;18.30;11.80;;;19.20;80.20;;;;;;4986970;28;20251;-72
2023/09/09 02:55:13;;;;;;;18.33;11.47;;;19.30;80.20;;;;;;4979884;28;20257;-74
2023/09/09 02:57:39;;;;;;;20.77;12.70;;;19.20;80.50;;;;;;4988771;28;20445;-74
2023/09/09 03:00:07;;;;;;;19.20;12.77;;;19.20;80.90;;;;;;4983861;28;20293;-73
2023/09/09 03:02:33;;;;;;;20.33;12.50;;;19.10;81.20;;;;;;5001148;28;20596;-72
2023/09/09 03:04:58;;;;;;;16.70;11.10;;;19.10;81.40;;;;;;5004255;28;20474;-73
2023/09/09 03:07:24;;;;;;;18.67;12.17;;;19.10;81.70;;;;;;4990993;28;20190;-73
2023/09/09 03:09:49;;;;;;;18.50;12.00;;;19.10;81.70;;;;;;4987605;28;20294;-75
2023/09/09 03:12:20;;;;;;;19.53;11.10;;;19.10;81.50;;;;;;4991348;28;20178;-73
2023/09/09 03:14:47;;;;;;;17.23;10.97;;;19.10;81.50;;;;;;4983547;28;20688;-73
2023/09/09 03:17:13;;;;;;;18.13;11.97;;;19.10;81.50;;;;;;4980212;28;20430;-74
2023/09/09 03:19:39;;;;;;;16.90;11.27;;;19.10;81.50;;;;;;4983780;28;21003;-72
2023/09/09 03:22:04;;;;;;;21.10;11.57;;;19.10;81.50;;;;;;4988961;28;20463;-72
2023/09/09 03:24:30;;;;;;;21.33;12.83;;;19.10;81.50;;;;;;4985675;28;20218;-74
2023/09/09 03:26:56;;;;;;;20.60;12.50;;;19.10;81.50;;;;;;4985805;28;20197;-73
2023/09/09 03:29:21;;;;;;;17.90;11.83;;;19.10;81.70;;;;;;4986558;28;20654;-74
2023/09/09 03:31:47;;;;;;;18.50;12.40;;;19.10;81.70;;;;;;4988077;28;20187;-73
2023/09/09 03:34:12;;;;;;;16.97;12.07;;;19.10;81.70;;;;;;4987051;28;20211;-73
2023/09/09 03:36:38;;;;;;;20.80;12.27;;;19.00;81.80;;;;;;4987229;28;20714;-74
2023/09/09 03:39:04;;;;;;;17.70;12.40;;;19.00;81.90;;;;;;4988197;28;20698;-72
2023/09/09 03:41:30;;;;;;;18.87;13.63;;;19.00;81.90;;;;;;4989785;28;20224;-72
2023/09/09 03:43:56;;;;;;;19.83;12.77;;;19.00;81.90;;;;;;4987273;28;20527;-73
2023/09/09 03:46:21;;;;;;;21.47;12.13;;;19.00;81.90;;;;;;4983653;28;21009;-73
2023/09/09 03:48:47;;;;;;;20.50;12.43;;;19.00;81.90;;;;;;4986218;28;20197;-73
2023/09/09 03:51:12;;;;;;;18.87;12.53;;;19.00;82.10;;;;;;4981723;28;20533;-73
2023/09/09 03:53:38;;;;;;;20.50;12.83;;;19.00;82.10;;;;;;4988455;28;20260;-74
2023/09/09 03:56:04;;;;;;;20.03;11.83;;;18.90;82.10;;;;;;4984372;28;20210;-73
2023/09/09 03:58:30;;;;;;;15.67;11.70;;;18.90;82.10;;;;;;4984949;28;20333;-72
2023/09/09 04:01:06;;;;;;;17.93;12.70;;;18.90;82.20;;;;;;4996033;28;20206;-73
2023/09/09 04:03:35;;;;;;;18.97;12.23;;;19.00;82.20;;;;;;4997291;28;20450;-74
2023/09/09 04:06:06;;;;;;;18.50;12.60;;;19.00;81.90;;;;;;4990382;28;20462;-72
2023/09/09 04:08:32;;;;;;;21.63;13.10;;;19.00;82.10;;;;;;4982153;28;20425;-72
2023/09/09 04:10:58;;;;;;;16.43;11.70;;;19.00;82.10;;;;;;4985173;28;21250;-73
2023/09/09 04:13:24;;;;;;;20.07;12.67;;;19.00;82.10;;;;;;4988028;28;20496;-73
2023/09/09 04:15:56;;;;;;;19.57;12.80;;;19.00;81.90;;;;;;4982361;28;20585;-74
2023/09/09 04:18:22;;;;;;;19.50;12.70;;;19.00;82.10;;;;;;4984625;28;20641;-73
2023/09/09 04:20:48;;;;;;;22.10;13.93;;;18.90;82.10;;;;;;4988823;28;20445;-74
2023/09/09 04:23:14;;;;;;;21.17;14.40;;;18.90;82.20;;;;;;4985330;28;20876;-74
2023/09/09 04:25:40;;;;;;;21.60;13.57;;;18.90;82.20;;;;;;4983965;28;20497;-74
2023/09/09 04:28:09;;;;;;;20.07;13.50;;;18.90;82.40;;;;;;4992720;28;20560;-73
2023/09/09 04:30:34;;;;;;;20.50;13.00;;;18.80;82.40;;;;;;4988822;28;20437;-71
2023/09/09 04:33:00;;;;;;;20.30;13.47;;;18.70;82.70;;;;;;4987294;28;20547;-70
2023/09/09 04:35:26;;;;;;;24.10;14.57;;;18.70;82.70;;;;;;4986623;28;20195;-72
2023/09/09 04:37:51;;;;;;;18.90;12.63;;;18.70;82.80;;;;;;4993422;28;20744;-71
2023/09/09 04:40:17;;;;;;;25.87;13.20;;;18.70;83.00;;;;;;4989455;28;20194;-70
2023/09/09 04:42:42;;;;;;;24.07;15.37;;;18.70;83.10;;;;;;4982032;28;20199;-71
2023/09/09 04:45:09;;;;;;;21.83;14.10;;;18.70;83.00;;;;;;4989916;28;20589;-70
2023/09/09 04:47:34;;;;;;;18.47;12.97;;;18.70;83.10;;;;;;4993058;28;20669;-70
2023/09/09 04:50:00;;;;;;;20.53;14.13;;;18.70;83.10;;;;;;4988394;28;20481;-70
2023/09/09 04:52:26;;;;;;;18.80;12.77;;;18.80;83.00;;;;;;4992682;28;20206;-70
2023/09/09 04:54:51;;;;;;;19.00;13.70;;;18.80;82.70;;;;;;4990159;28;20236;-70
2023/09/09 04:57:17;;;;;;;20.20;13.60;;;18.80;82.70;;;;;;4989399;28;20191;-72
2023/09/09 04:59:43;;;;;;;19.00;13.03;;;18.80;82.50;;;;;;4991940;28;20202;-72
2023/09/09 05:02:08;;;;;;;21.13;12.20;;;18.80;82.50;;;;;;4991989;28;20227;-69
2023/09/09 05:04:34;;;;;;;25.67;13.90;;;18.70;82.50;;;;;;4991718;28;20272;-69
2023/09/09 05:07:00;;;;;;;22.37;14.50;;;18.70;82.80;;;;;;4992801;28;20203;-70
2023/09/09 05:09:27;;;;;;;22.90;13.63;;;18.70;83.00;;;;;;4990789;28;20270;-72
2023/09/09 05:11:52;;;;;;;20.47;13.30;;;18.60;83.00;;;;;;5001089;28;20428;-71
2023/09/09 05:14:18;;;;;;;22.70;13.50;;;18.60;83.10;;;;;;4994713;28;20789;-70
2023/09/09 05:16:44;;;;;;;19.30;13.43;;;18.60;83.10;;;;;;4985917;28;20225;-70
2023/09/09 05:19:09;;;;;;;20.70;13.67;;;18.60;83.10;;;;;;4992470;28;20221;-69
2023/09/09 05:21:35;;;;;;;20.63;13.13;;;18.60;83.10;;;;;;4991339;28;20216;-70
2023/09/09 05:24:00;;;;;;;23.87;13.40;;;18.60;83.00;;;;;;4982672;28;20199;-71
2023/09/09 05:26:27;;;;;;;18.73;12.97;;;18.70;82.80;;;;;;4989996;28;20209;-71
2023/09/09 05:28:52;;;;;;;21.10;13.63;;;18.70;82.50;;;;;;4987208;28;20192;-71
2023/09/09 05:31:18;;;;;;;19.77;13.57;;;18.70;82.80;;;;;;4991233;28;20413;-69
2023/09/09 05:33:44;;;;;;;21.43;13.10;;;18.70;82.50;;;;;;4987112;28;20179;-70
2023/09/09 05:36:09;;;;;;;21.10;14.13;;;18.80;82.70;;;;;;4968458;28;20300;-71
2023/09/09 05:38:35;;;;;;;21.20;13.77;;;18.70;82.70;;;;;;4976819;28;20217;-72
2023/09/09 05:41:01;;;;;;;26.17;14.53;;;18.70;82.70;;;;;;4990747;28;20249;-70
2023/09/09 05:43:27;;;;;;;22.23;14.07;;;18.60;82.80;;;;;;4990260;28;21001;-70
2023/09/09 05:45:58;;;;;;;20.27;13.07;;;18.60;82.50;;;;;;4984531;28;20206;-71
2023/09/09 05:48:24;;;;;;;19.63;13.20;;;18.70;82.50;;;;;;4991969;28;20673;-70
2023/09/09 05:50:49;;;;;;;22.50;14.37;;;18.80;81.90;;;;;;4991188;28;20414;-70
2023/09/09 05:53:15;;;;;;;27.60;13.17;;;18.90;81.50;;;;;;4993167;28;20198;-71
2023/09/09 05:55:41;;;;;;;22.00;13.63;;;18.90;81.50;;;;;;4992442;28;20235;-69
2023/09/09 05:58:07;;;;;;;22.20;13.43;;;18.90;81.70;;;;;;4974669;28;20516;-69
2023/09/09 06:00:32;;;;;;;23.03;14.37;;;18.90;81.90;;;;;;4990823;28;20700;-72
2023/09/09 06:02:58;;;;;;;21.93;14.73;;;18.90;81.90;;;;;;4985949;28;20205;-72
2023/09/09 06:05:24;;;;;;;19.77;13.80;;;19.00;81.90;;;;;;4984042;28;20206;-70
2023/09/09 06:07:49;;;;;;;28.53;14.73;;;19.00;81.90;;;;;;4987767;28;20183;-70
2023/09/09 06:10:15;;;;;;;21.10;13.87;;;19.10;81.70;;;;;;4990428;28;20659;-72
2023/09/09 06:12:41;;;;;;;21.20;13.77;;;19.30;81.70;;;;;;4987551;28;20183;-70
2023/09/09 06:15:07;;;;;;;22.67;13.57;;;19.90;80.90;;;;;;4991995;28;20201;-70
2023/09/09 06:17:33;;;;;;;23.10;14.40;;;20.50;78.10;;;;;;4989279;28;20192;-72
2023/09/09 06:19:58;;;;;;;20.73;12.70;;;20.60;77.00;;;;;;4990414;28;20466;-70
2023/09/09 06:22:24;;;;;;;24.07;15.20;;;20.40;77.00;;;;;;4981842;28;20277;-71
2023/09/09 06:24:49;;;;;;;22.23;13.50;;;20.30;77.40;;;;;;4989317;28;20648;-71
2023/09/09 06:27:15;;;;;;;32.43;14.33;;;20.20;78.10;;;;;;4990711;28;20189;-70
2023/09/09 06:29:40;;;;;;;22.97;13.60;;;20.00;78.30;;;;;;4991304;28;20622;-70
2023/09/09 06:32:09;;;;;;;21.13;13.00;;;20.00;78.90;;;;;;4987953;28;20200;-69
2023/09/09 06:34:36;;;;;;;20.60;12.13;;;19.90;79.00;;;;;;4982335;28;20193;-68
2023/09/09 06:37:01;;;;;;;22.40;13.40;;;19.90;79.30;;;;;;4991764;28;20424;-69
2023/09/09 06:39:27;;;;;;;20.40;12.87;;;20.00;79.30;;;;;;4984735;28;20780;-70
2023/09/09 06:41:53;;;;;;;21.97;13.20;;;19.90;79.50;;;;;;4989044;28;20186;-70
2023/09/09 06:44:18;;;;;;;20.23;13.17;;;20.00;79.50;;;;;;4987899;28;20712;-71
2023/09/09 06:46:44;;;;;;;19.93;13.30;;;20.00;79.30;;;;;;4991174;28;20228;-71
2023/09/09 06:49:09;;;;;;;20.27;14.10;;;20.10;79.20;;;;;;4975944;28;20188;-70
2023/09/09 06:51:35;;;;;;;23.17;14.30;;;20.20;79.20;;;;;;4988719;28;20197;-71
2023/09/09 06:54:00;;;;;;;22.73;14.40;;;20.20;79.00;;;;;;4981196;28;20274;-71
2023/09/09 06:56:27;;;;;;;19.83;13.40;;;20.30;79.00;;;;;;4988474;28;20207;-71
2023/09/09 06:58:52;;;;;;;19.73;13.57;;;20.40;78.60;;;;;;4982739;28;20347;-71
2023/09/09 07:01:18;;;;;;;22.20;13.00;;;20.50;78.40;;;;;;4988925;28;21387;-71
2023/09/09 07:03:43;;;;;;;21.30;14.07;;;20.60;78.10;;;;;;4985068;28;20192;-70
2023/09/09 07:06:09;;;;;;;20.37;12.93;;;20.70;77.80;;;;;;4990434;28;20226;-70
2023/09/09 07:08:39;;;;;;;22.40;14.60;;;20.80;77.70;;;;;;5001362;28;20220;-71
2023/09/09 07:11:04;;;;;;;23.20;14.07;;;20.90;77.30;;;;;;4998840;28;20188;-71
2023/09/09 07:13:30;;;;;;;18.00;13.60;;;21.00;77.00;;;;;;4994709;28;20440;-70
2023/09/09 07:15:56;;;;;;;24.00;14.40;;;21.10;76.70;;;;;;4985916;28;20213;-71
2023/09/09 07:18:22;;;;;;;30.73;16.60;;;21.10;76.70;;;;;;4981412;28;20217;-71
2023/09/09 07:20:48;;;;;;;23.00;14.20;;;21.00;76.70;;;;;;4987839;28;20561;-71
2023/09/09 07:23:15;;;;;;;22.03;14.00;;;20.90;77.30;;;;;;4985241;28;21129;-70
2023/09/09 07:25:42;;;;;;;21.50;14.10;;;20.90;77.60;;;;;;4983568;28;20479;-71
2023/09/09 07:28:08;;;;;;;27.40;14.30;;;20.90;77.40;;;;;;4983251;28;20749;-71
2023/09/09 07:30:34;;;;;;;36.70;23.80;;;21.00;77.30;;;;;;4984954;28;20475;-70
2023/09/09 07:33:01;;;;;;;38.93;23.20;;;21.10;76.80;;;;;;4981938;28;20239;-71
2023/09/09 07:35:26;;;;;;;37.00;20.03;;;21.10;76.80;;;;;;4976626;28;20237;-71
2023/09/09 07:37:52;;;;;;;27.10;18.10;;;21.20;76.80;;;;;;4986699;28;20471;-71
2023/09/09 07:40:18;;;;;;;26.03;16.90;;;21.30;76.50;;;;;;4978552;28;20250;-71
2023/09/09 07:42:43;;;;;;;25.47;15.57;;;21.30;76.40;;;;;;4991209;28;20228;-71
2023/09/09 07:45:09;;;;;;;24.73;15.50;;;21.40;76.20;;;;;;4988466;28;20218;-71
2023/09/09 07:47:35;;;;;;;19.63;13.17;;;21.50;76.10;;;;;;4987356;28;20192;-73
2023/09/09 07:50:01;;;;;;;22.23;15.00;;;21.60;75.90;;;;;;4982583;28;20433;-72
2023/09/09 07:52:26;;;;;;;24.60;15.67;;;21.70;75.40;;;;;;4985511;28;20205;-72
2023/09/09 07:54:52;;;;;;;22.37;16.67;;;21.80;75.20;;;;;;4979210;28;20591;-72
2023/09/09 07:57:18;;;;;;;32.57;19.27;;;21.80;75.10;;;;;;4988447;28;20555;-71
2023/09/09 07:59:43;;;;;;;35.67;22.10;;;21.90;75.10;;;;;;4987746;28;20217;-71
2023/09/09 08:02:09;;;;;;;29.00;19.10;;;21.90;74.90;;;;;;4990790;28;20194;-71
2023/09/09 08:04:35;;;;;;;31.50;20.57;;;22.00;74.60;;;;;;4979811;28;20726;-72
2023/09/09 08:07:01;;;;;;;27.23;17.53;;;22.10;74.30;;;;;;4991461;28;20224;-72
2023/09/09 08:09:26;;;;;;;24.03;15.47;;;22.20;74.00;;;;;;4990544;28;20788;-71
2023/09/09 08:11:52;;;;;;;26.37;15.00;;;22.20;74.00;;;;;;4986997;28;20232;-72
2023/09/09 08:14:18;;;;;;;26.00;15.17;;;22.40;73.90;;;;;;4991438;28;20592;-74
2023/09/09 08:16:44;;;;;;;24.97;15.97;;;22.50;73.70;;;;;;4991991;28;20310;-72
2023/09/09 08:19:10;;;;;;;20.57;14.97;;;22.60;73.30;;;;;;4998536;28;20998;-70
2023/09/09 08:21:35;;;;;;;22.37;15.00;;;22.60;73.00;;;;;;4994888;28;20660;-71
2023/09/09 08:24:01;;;;;;;26.23;15.80;;;22.80;73.00;;;;;;4989327;28;20294;-70
2023/09/09 08:26:28;;;;;;;19.60;14.20;;;22.80;72.30;;;;;;4992955;28;20310;-73
2023/09/09 08:28:54;;;;;;;22.00;15.50;;;23.00;72.00;;;;;;4993747;28;20195;-71
2023/09/09 08:31:20;;;;;;;18.97;13.77;;;23.10;71.60;;;;;;4992663;28;20521;-71
2023/09/09 08:33:46;;;;;;;26.03;15.10;;;23.20;71.10;;;;;;4987679;28;20416;-73
2023/09/09 08:36:11;;;;;;;21.07;14.33;;;23.30;71.00;;;;;;4987634;28;20460;-71
2023/09/09 08:38:37;;;;;;;24.03;15.60;;;23.30;70.80;;;;;;4987066;28;20626;-72
2023/09/09 08:41:19;;;;;;;21.30;15.50;;;23.50;70.70;;;;;;4989372;28;20195;-71
2023/09/09 08:43:56;;;;;;;25.57;15.60;;;23.60;70.20;;;;;;4980805;28;20185;-72
2023/09/09 08:46:22;;;;;;;24.57;16.60;;;23.70;69.90;;;;;;4988379;28;20458;-72
2023/09/09 08:48:52;;;;;;;22.97;13.63;;;23.70;69.70;;;;;;4991957;28;20438;-72
2023/09/09 08:51:22;;;;;;;22.73;14.93;;;23.80;69.70;;;;;;4990917;28;20185;-72
2023/09/09 08:53:50;;;;;;;19.10;13.53;;;24.00;69.40;;;;;;4985656;28;20423;-71
2023/09/09 08:56:17;;;;;;;15.73;11.80;;;24.10;68.80;;;;;;4991709;28;20446;-72
2023/09/09 08:58:43;;;;;;;19.23;13.00;;;24.20;68.50;;;;;;4990057;28;21101;-72
2023/09/09 09:01:10;;;;;;;22.80;15.20;;;24.30;68.20;;;;;;4987196;28;20436;-71
2023/09/09 09:03:38;;;;;;;28.20;14.00;;;24.40;68.00;;;;;;4987447;28;20456;-72
2023/09/09 09:06:05;;;;;;;19.23;13.43;;;24.40;67.70;;;;;;4988843;28;20499;-74
2023/09/09 09:08:31;;;;;;;16.37;12.30;;;24.50;67.60;;;;;;4990056;28;21217;-74
2023/09/09 09:10:58;;;;;;;21.40;13.47;;;24.60;67.50;;;;;;4991040;28;20425;-74
2023/09/09 09:13:25;;;;;;;19.63;13.43;;;24.70;67.00;;;;;;4986571;28;20432;-72
2023/09/09 09:15:50;;;;;;;23.57;13.40;;;24.80;66.90;;;;;;4984379;28;20890;-72
2023/09/09 09:18:16;;;;;;;21.40;12.70;;;24.90;66.40;;;;;;4990433;28;20572;-71
2023/09/09 09:20:42;;;;;;;16.53;12.00;;;25.00;66.30;;;;;;4983188;28;20340;-73
2023/09/09 09:23:12;;;;;;;17.50;12.33;;;25.10;66.00;;;;;;4986841;28;20607;-73
2023/09/09 09:25:48;;;;;;;25.53;14.07;;;25.20;65.40;;;;;;4986330;28;20707;-71
2023/09/09 09:28:15;;;;;;;18.20;13.23;;;25.10;65.60;;;;;;4991357;28;20434;-71
2023/09/09 09:30:41;;;;;;;19.97;13.03;;;25.20;65.70;;;;;;4991509;28;20435;-72
2023/09/09 09:33:07;;;;;;;18.20;12.43;;;25.30;65.30;;;;;;5000294;28;20498;-73
2023/09/09 09:35:36;;;;;;;18.77;12.93;;;25.40;64.50;;;;;;4988244;28;20515;-72
2023/09/09 09:38:09;;;;;;;20.10;13.20;;;25.60;64.10;;;;;;4991720;28;20189;-72
2023/09/09 09:40:35;;;;;;;18.20;13.40;;;25.60;63.80;;;;;;4988194;28;20435;-73
2023/09/09 09:43:01;;;;;;;18.00;13.17;;;25.60;63.80;;;;;;4986754;28;20524;-72
2023/09/09 09:45:29;;;;;;;21.13;13.20;;;25.60;63.70;;;;;;4986158;28;20579;-72
2023/09/09 09:47:57;;;;;;;17.07;12.40;;;25.70;63.40;;;;;;4977825;28;20620;-73
2023/09/09 09:50:30;;;;;;;21.17;12.80;;;25.80;63.50;;;;;;4991324;28;20518;-74
2023/09/09 09:53:00;;;;;;;16.97;12.53;;;25.80;63.20;;;;;;4996753;28;20436;-75
2023/09/09 09:55:27;;;;;;;17.40;12.93;;;25.80;62.80;;;;;;4987517;28;20474;-74
2023/09/09 09:57:54;;;;;;;19.63;12.37;;;25.80;62.90;;;;;;4989259;28;20445;-72
2023/09/09 10:00:21;;;;;;;46.67;25.40;;;25.90;62.50;;;;;;4980020;28;21095;-73
2023/09/09 10:02:51;;;;;;;25.63;18.03;;;26.00;62.50;;;;;;4987467;28;20431;-73
2023/09/09 10:05:21;;;;;;;16.40;11.80;;;26.20;62.20;;;;;;4990039;28;20483;-74
2023/09/09 10:07:51;;;;;;;15.43;12.13;;;26.30;61.50;;;;;;4995290;28;20437;-74
2023/09/09 10:10:21;;;;;;;15.93;11.60;;;26.40;61.00;;;;;;4991597;28;20429;-74
2023/09/09 10:13:02;;;;;;;17.67;11.33;;;26.50;60.70;;;;;;4996488;28;20427;-74
2023/09/09 10:15:30;;;;;;;14.27;10.87;;;26.50;60.90;;;;;;4987419;28;21035;-75
2023/09/09 10:17:59;;;;;;;16.50;12.03;;;26.70;60.40;;;;;;4990714;28;20913;-73
2023/09/09 10:20:25;;;;;;;16.90;11.10;;;26.90;60.10;;;;;;4969905;28;20471;-72
2023/09/09 10:22:53;;;;;;;29.40;18.90;;;26.90;60.40;;;;;;4988413;28;21016;-73
2023/09/09 10:25:19;;;;;;;57.93;35.80;;;26.90;60.60;;;;;;4985353;28;20219;-74
2023/09/09 10:27:48;;;;;;;23.67;14.67;;;26.90;60.70;;;;;;4987434;28;20444;-74
2023/09/09 10:30:16;;;;;;;17.73;12.53;;;26.80;60.90;;;;;;4985336;28;20473;-75
2023/09/09 10:32:44;;;;;;;19.17;13.10;;;26.90;60.90;;;;;;4974080;28;20604;-73
2023/09/09 10:35:10;;;;;;;21.17;13.93;;;27.00;60.70;;;;;;4988663;28;20617;-74
2023/09/09 10:37:37;;;;;;;14.20;10.83;;;27.10;60.70;;;;;;4988163;28;20421;-75
2023/09/09 10:40:05;;;;;;;17.40;12.80;;;26.90;61.20;;;;;;4989918;28;20972;-75
2023/09/09 10:42:33;;;;;;;18.97;13.07;;;27.10;60.90;;;;;;4988203;28;20434;-74
2023/09/09 10:45:24;;;;;;;20.93;13.40;;;27.30;60.10;;;;;;4985177;28;20465;-74
2023/09/09 10:48:01;;;;;;;17.97;13.00;;;27.80;60.30;;;;;;4984926;28;20421;-74
2023/09/09 10:50:47;;;;;;;18.53;11.93;;;28.40;59.50;;;;;;4982113;28;20504;-73
2023/09/09 10:53:18;;;;;;;15.17;11.40;;;29.00;59.20;;;;;;4981386;28;20504;-73
2023/09/09 10:55:46;;;;;;;20.17;12.30;;;29.60;58.40;;;;;;4984312;28;20480;-73
2023/09/09 10:58:16;;;;;;;16.87;12.20;;;29.50;58.20;;;;;;4988332;28;20526;-72
2023/09/09 11:00:44;;;;;;;13.97;10.10;;;29.80;57.00;;;;;;4975259;28;20449;-72
2023/09/09 11:03:20;;;;;;;15.80;11.50;;;29.80;57.80;;;;;;4989757;28;20461;-74
2023/09/09 11:06:02;;;;;;;13.43;11.00;;;30.50;56.80;;;;;;4982498;28;20997;-74
2023/09/09 11:08:41;;;;;;;14.53;10.60;;;30.30;56.60;;;;;;4989847;28;20456;-73
2023/09/09 11:11:17;;;;;;;16.07;11.23;;;29.80;56.80;;;;;;4989882;28;20436;-74
2023/09/09 11:13:50;;;;;;;15.07;11.63;;;30.10;56.50;;;;;;4991091;28;20480;-72
2023/09/09 11:16:31;;;;;;;13.03;10.30;;;29.80;56.60;;;;;;4979553;28;20462;-73
2023/09/09 11:18:59;;;;;;;19.20;11.40;;;30.20;56.90;;;;;;4988643;28;20500;-72
2023/09/09 11:21:25;;;;;;;13.80;9.70;;;29.90;56.60;;;;;;4985766;28;20450;-72
2023/09/09 11:23:51;;;;;;;14.37;10.63;;;30.10;56.50;;;;;;4992644;28;20426;-74
2023/09/09 11:26:17;;;;;;;13.90;10.57;;;30.50;56.40;;;;;;4985690;28;20910;-74
2023/09/09 11:28:45;;;;;;;15.73;10.30;;;31.10;54.50;;;;;;4991478;28;20449;-72
2023/09/09 11:31:12;;;;;;;12.53;9.80;;;31.00;54.00;;;;;;4988904;28;20195;-74
2023/09/09 11:33:39;;;;;;;14.97;9.47;;;30.00;55.20;;;;;;4986818;28;20934;-74
2023/09/09 11:36:05;;;;;;;11.13;8.60;;;30.20;54.80;;;;;;4984830;28;20489;-73
2023/09/09 11:38:40;;;;;;;12.10;8.63;;;30.50;54.50;;;;;;4989981;28;20847;-73
2023/09/09 11:41:06;;;;;;;11.53;8.77;;;31.20;53.60;;;;;;4984811;28;20556;-73
2023/09/09 11:43:32;;;;;;;17.77;8.63;;;30.70;53.40;;;;;;4980586;28;21103;-74
2023/09/09 11:45:58;;;;;;;14.20;8.90;;;30.90;53.30;;;;;;4987573;28;20504;-73
2023/09/09 11:48:24;;;;;;;18.97;9.10;;;30.60;53.20;;;;;;4988765;28;20187;-73
2023/09/09 11:50:51;;;;;;;15.00;9.40;;;30.90;53.70;;;;;;4985429;28;20427;-72
2023/09/09 11:53:20;;;;;;;13.40;8.87;;;31.30;52.10;;;;;;4985958;28;20261;-72
2023/09/09 11:55:51;;;;;;;14.03;9.60;;;31.50;52.20;;;;;;4988283;28;20476;-73
2023/09/09 11:58:16;;;;;;;16.30;8.27;;;31.60;50.90;;;;;;4988837;28;20449;-74
2023/09/09 12:00:42;;;;;;;22.13;9.20;;;31.70;50.90;;;;;;4984520;28;20415;-74
2023/09/09 12:03:07;;;;;;;12.53;8.40;;;31.70;50.70;;;;;;4986708;28;20197;-74
2023/09/09 12:05:33;;;;;;;18.00;8.40;;;31.90;50.20;;;;;;4984294;28;20699;-72
2023/09/09 12:08:01;;;;;;;13.73;7.93;;;32.00;48.90;;;;;;4989147;28;20254;-73
2023/09/09 12:10:30;;;;;;;12.77;8.17;;;31.80;50.50;;;;;;4985941;28;20292;-72
2023/09/09 12:12:56;;;;;;;16.37;8.07;;;32.00;50.20;;;;;;4985586;28;20425;-73
2023/09/09 12:15:23;;;;;;;12.80;8.10;;;32.10;49.80;;;;;;4980848;28;20488;-72
2023/09/09 12:17:49;;;;;;;12.13;8.40;;;32.20;50.50;;;;;;4988492;28;20861;-74
2023/09/09 12:20:14;;;;;;;14.43;8.13;;;32.30;49.40;;;;;;4980524;28;20469;-72
2023/09/09 12:22:51;;;;;;;17.13;8.60;;;32.30;49.70;;;;;;4986236;28;20212;-74
2023/09/09 12:25:30;;;;;;;16.07;8.40;;;31.90;50.20;;;;;;4984242;28;20292;-73
2023/09/09 12:27:56;;;;;;;12.53;8.50;;;31.70;50.60;;;;;;4989867;28;20414;-73